createdAt,value
2023-04-27T00:00:46.556Z,100506.15
2023-04-27T00:03:17.101Z,100507.05
2023-04-27T00:05:45.659Z,100503.92
2023-04-27T00:08:13.823Z,100505.61
2023-04-27T00:10:41.910Z,100505.77
2023-04-27T00:13:10.032Z,100507.48
2023-04-27T00:15:38.176Z,100510.38
2023-04-27T00:18:06.370Z,100512.27
2023-04-27T00:20:34.476Z,100516.77
2023-04-27T00:23:02.696Z,100518.75
2023-04-27T00:25:30.882Z,100514.10
2023-04-27T00:27:59.097Z,100517.88
2023-04-27T00:30:27.256Z,100513.83
2023-04-27T00:32:55.614Z,100514.98
2023-04-27T00:35:24.629Z,100516.89
2023-04-27T00:37:55.396Z,100517.35
2023-04-27T00:40:23.533Z,100514.11
2023-04-27T00:42:51.770Z,100516.97
2023-04-27T00:45:20.067Z,100516.75
2023-04-27T00:47:48.474Z,100522.99
2023-04-27T00:50:17.176Z,100521.83
2023-04-27T00:52:45.808Z,100523.53
2023-04-27T00:55:13.970Z,100522.45
2023-04-27T00:57:42.030Z,100518.59
2023-04-27T01:00:13.437Z,100515.89
2023-04-27T01:02:42.623Z,100517.52
2023-04-27T01:05:10.986Z,100518.54
2023-04-27T01:07:41.187Z,100520.85
2023-04-27T01:10:09.819Z,100521.76
2023-04-27T01:12:38.060Z,100528.73
2023-04-27T01:15:07.777Z,100533.02
2023-04-27T01:17:35.985Z,100538.46
2023-04-27T01:20:07.657Z,100542.83
2023-04-27T01:22:38.214Z,100545.15
2023-04-27T01:25:09.059Z,100553.02
2023-04-27T01:27:37.217Z,100553.31
2023-04-27T01:30:06.723Z,100550.80
2023-04-27T01:32:38.082Z,100556.48
2023-04-27T01:35:07.584Z,100555.66
2023-04-27T01:37:36.132Z,100559.29
2023-04-27T01:40:06.822Z,100558.55
2023-04-27T01:42:35.057Z,100562.20
2023-04-27T01:45:04.271Z,100564.59
2023-04-27T01:47:33.248Z,100564.69
2023-04-27T01:50:01.857Z,100564.63
2023-04-27T01:52:30.203Z,100565.05
2023-04-27T01:54:58.493Z,100566.31
2023-04-27T01:57:27.094Z,100565.56
2023-04-27T01:59:57.140Z,100567.48
2023-04-27T02:02:25.436Z,100573.67
2023-04-27T02:04:53.822Z,100574.61
2023-04-27T02:07:21.955Z,100575.75
2023-04-27T02:09:51.032Z,100574.91
2023-04-27T02:12:19.129Z,100576.30
2023-04-27T02:14:48.223Z,100578.72
2023-04-27T02:17:16.703Z,100575.80
2023-04-27T02:19:44.776Z,100583.22
2023-04-27T02:22:12.873Z,100584.35
2023-04-27T02:24:41.300Z,100582.44
2023-04-27T02:27:09.862Z,100587.23
2023-04-27T02:29:39.366Z,100590.27
2023-04-27T02:32:08.052Z,100593.79
2023-04-27T02:34:36.117Z,100594.20
2023-04-27T02:37:04.281Z,100599.54
2023-04-27T02:39:32.678Z,100603.27
2023-04-27T02:42:01.655Z,100601.09
2023-04-27T02:44:29.966Z,100606.27
2023-04-27T02:46:59.116Z,100602.40
2023-04-27T02:49:27.412Z,100604.23
2023-04-27T02:51:56.980Z,100608.69
2023-04-27T02:54:25.718Z,100611.52
2023-04-27T02:56:53.832Z,100613.40
2023-04-27T02:59:22.043Z,100619.02
2023-04-27T03:01:50.131Z,100624.44
2023-04-27T03:04:18.823Z,100625.70
2023-04-27T03:06:47.268Z,100628.61
2023-04-27T03:09:17.333Z,100632.72
2023-04-27T03:11:45.640Z,100636.96
2023-04-27T03:14:14.004Z,100641.33
2023-04-27T03:16:42.239Z,100644.35
2023-04-27T03:19:10.819Z,100643.27
2023-04-27T03:21:39.582Z,100643.54
2023-04-27T03:24:07.727Z,100646.85
2023-04-27T03:26:35.871Z,100653.38
2023-04-27T03:29:05.418Z,100651.45
2023-04-27T03:31:33.783Z,100651.06
2023-04-27T03:34:02.423Z,100652.67
2023-04-27T03:36:32.316Z,100652.61
2023-04-27T03:39:00.480Z,100655.59
2023-04-27T03:41:28.938Z,100657.30
2023-04-27T03:43:57.075Z,100655.06
2023-04-27T03:46:25.402Z,100649.59
2023-04-27T03:48:53.674Z,100651.27
2023-04-27T03:51:24.987Z,100653.97
2023-04-27T03:53:55.332Z,100660.26
2023-04-27T03:56:24.245Z,100663.73
2023-04-27T03:58:53.132Z,100662.79
2023-04-27T04:01:23.366Z,100664.11
2023-04-27T04:03:51.998Z,100665.52
2023-04-27T04:06:20.918Z,100663.83
2023-04-27T04:08:48.998Z,100666.05
2023-04-27T04:11:17.493Z,100665.16
2023-04-27T04:13:46.266Z,100666.36
2023-04-27T04:16:14.451Z,100669.02
2023-04-27T04:18:42.754Z,100671.17
2023-04-27T04:21:11.413Z,100668.72
2023-04-27T04:23:41.373Z,100666.43
2023-04-27T04:26:10.186Z,100668.34
2023-04-27T04:28:38.592Z,100669.30
2023-04-27T04:31:08.458Z,100671.23
2023-04-27T04:33:36.666Z,100673.45
2023-04-27T04:36:05.485Z,100673.59
2023-04-27T04:38:34.974Z,100675.86
2023-04-27T04:41:05.908Z,100679.31
2023-04-27T04:43:34.629Z,100679.77
2023-04-27T04:46:06.617Z,100686.44
2023-04-27T04:48:35.785Z,100689.44
2023-04-27T04:51:07.307Z,100691.40
2023-04-27T04:53:36.000Z,100691.76
2023-04-27T04:56:11.945Z,100694.08
2023-04-27T04:58:40.383Z,100692.17
2023-04-27T05:01:08.612Z,100689.36
2023-04-27T05:03:36.923Z,100687.23
2023-04-27T05:06:06.089Z,100682.87
2023-04-27T05:08:34.201Z,100689.94
2023-04-27T05:11:02.290Z,100691.01
2023-04-27T05:13:30.440Z,100692.52
2023-04-27T05:15:58.593Z,100689.80
2023-04-27T05:18:26.899Z,100686.78
2023-04-27T05:20:55.019Z,100693.48
2023-04-27T05:23:23.056Z,100693.20
2023-04-27T05:25:51.929Z,100693.08
2023-04-27T05:28:20.082Z,100694.98
2023-04-27T05:30:48.152Z,100697.09
2023-04-27T05:33:16.275Z,100690.55
2023-04-27T05:35:44.433Z,100685.56
2023-04-27T05:38:17.466Z,100684.44
2023-04-27T05:40:45.571Z,100680.81
2023-04-27T05:43:13.617Z,100681.41
2023-04-27T05:45:42.151Z,100679.63
2023-04-27T05:48:10.368Z,100675.61
2023-04-27T05:50:38.457Z,100678.39
2023-04-27T05:53:07.199Z,100673.49
2023-04-27T05:55:35.729Z,100675.83
2023-04-27T05:58:08.702Z,100681.58
2023-04-27T06:00:38.534Z,100683.86
2023-04-27T06:03:06.904Z,100680.71
2023-04-27T06:05:35.373Z,100684.27
2023-04-27T06:08:03.688Z,100684.73
2023-04-27T06:10:31.895Z,100686.88
2023-04-27T06:12:59.961Z,100688.06
2023-04-27T06:15:28.103Z,100685.33
2023-04-27T06:17:56.576Z,100689.40
2023-04-27T06:20:24.793Z,100683.80
2023-04-27T06:22:52.879Z,100687.27
2023-04-27T06:25:21.046Z,100686.77
2023-04-27T06:27:49.250Z,100685.81
2023-04-27T06:30:17.486Z,100685.10
2023-04-27T06:32:46.136Z,100684.35
2023-04-27T06:35:14.644Z,100681.16
2023-04-27T06:37:42.890Z,100681.80
2023-04-27T06:40:11.391Z,100680.84
2023-04-27T06:42:39.565Z,100688.11
2023-04-27T06:45:08.341Z,100687.26
2023-04-27T06:47:36.535Z,100686.39
2023-04-27T06:50:04.956Z,100679.83
2023-04-27T06:52:33.860Z,100682.77
2023-04-27T06:55:01.917Z,100682.16
2023-04-27T06:57:32.555Z,100680.48
2023-04-27T07:00:00.706Z,100683.23
2023-04-27T07:02:28.823Z,100682.04
2023-04-27T07:04:57.313Z,100686.21
2023-04-27T07:07:25.649Z,100684.51
2023-04-27T07:09:53.748Z,100689.78
2023-04-27T07:12:21.879Z,100685.89
2023-04-27T07:14:51.175Z,100684.46
2023-04-27T07:17:19.242Z,100692.70
2023-04-27T07:19:47.391Z,100689.73
2023-04-27T07:22:16.236Z,100688.98
2023-04-27T07:24:44.320Z,100689.98
2023-04-27T07:27:12.455Z,100691.14
2023-04-27T07:29:41.141Z,100692.90
2023-04-27T07:32:09.347Z,100692.41
2023-04-27T07:34:52.065Z,100692.34
2023-04-27T07:37:23.060Z,100697.31
2023-04-27T07:39:54.895Z,100698.99
2023-04-27T07:42:23.711Z,100707.45
2023-04-27T07:44:52.690Z,100714.52
2023-04-27T07:47:20.888Z,100710.09
2023-04-27T07:49:49.175Z,100708.58
2023-04-27T07:52:17.564Z,100714.91
2023-04-27T07:54:45.770Z,100711.99
2023-04-27T07:57:13.839Z,100710.53
2023-04-27T07:59:42.061Z,100706.56
2023-04-27T08:02:18.484Z,100706.45
2023-04-27T08:04:50.173Z,100711.15
2023-04-27T08:07:19.393Z,100713.75
2023-04-27T08:09:51.501Z,100710.60
2023-04-27T08:12:19.790Z,100717.00
2023-04-27T08:14:47.892Z,100717.41
2023-04-27T08:17:17.613Z,100720.79
2023-04-27T08:19:45.776Z,100718.89
2023-04-27T08:22:14.004Z,100719.29
2023-04-27T08:24:42.253Z,100724.05
2023-04-27T08:27:11.056Z,100726.67
2023-04-27T08:29:39.300Z,100719.73
2023-04-27T08:32:07.687Z,100721.68
2023-04-27T08:34:35.763Z,100724.03
2023-04-27T08:37:04.592Z,100733.24
2023-04-27T08:39:32.798Z,100727.70
2023-04-27T08:42:00.942Z,100725.92
2023-04-27T08:44:29.888Z,100723.27
2023-04-27T08:46:58.079Z,100719.10
2023-04-27T08:49:26.335Z,100715.23
2023-04-27T08:51:54.387Z,100719.04
2023-04-27T08:54:22.545Z,100723.16
2023-04-27T08:56:50.760Z,100721.61
2023-04-27T08:59:18.868Z,100724.60
2023-04-27T09:01:49.288Z,100719.45
2023-04-27T09:04:18.688Z,100727.27
2023-04-27T09:06:47.921Z,100730.95
2023-04-27T09:09:24.103Z,100722.35
2023-04-27T09:11:52.330Z,100722.98
2023-04-27T09:14:23.376Z,100720.34
2023-04-27T09:17:00.139Z,100719.27
2023-04-27T09:19:30.000Z,100719.91
2023-04-27T09:22:04.960Z,100721.20
2023-04-27T09:24:34.229Z,100714.34
2023-04-27T09:27:03.378Z,100718.11
2023-04-27T09:29:37.276Z,100718.37
2023-04-27T09:32:21.030Z,100714.30
2023-04-27T09:34:49.416Z,100712.67
2023-04-27T09:37:18.612Z,100713.98
2023-04-27T09:39:47.290Z,100715.50
2023-04-27T09:42:16.382Z,100708.55
2023-04-27T09:44:44.440Z,100716.96
2023-04-27T09:47:14.048Z,100719.52
2023-04-27T09:49:42.551Z,100727.85
2023-04-27T09:52:10.921Z,100728.14
2023-04-27T09:54:40.378Z,100727.35
2023-04-27T09:57:28.831Z,100721.16
2023-04-27T10:00:16.450Z,100717.64
2023-04-27T10:03:07.755Z,100725.82
2023-04-27T10:05:57.764Z,100716.39
2023-04-27T10:08:26.850Z,100718.74
2023-04-27T10:10:55.022Z,100726.84
2023-04-27T10:13:27.280Z,100733.89
2023-04-27T10:15:55.704Z,100732.15
2023-04-27T10:18:33.409Z,100729.40
2023-04-27T10:21:11.928Z,100727.59
2023-04-27T10:23:51.453Z,100723.23
2023-04-27T10:26:27.381Z,100724.21
2023-04-27T10:29:12.225Z,100723.77
2023-04-27T10:31:45.267Z,100723.11
2023-04-27T10:34:21.164Z,100720.33
2023-04-27T10:37:05.955Z,100725.98
2023-04-27T10:39:47.681Z,100728.87
2023-04-27T10:42:29.365Z,100729.67
2023-04-27T10:44:58.546Z,100736.85
2023-04-27T10:47:39.535Z,100734.88
2023-04-27T10:50:13.555Z,100733.65
2023-04-27T10:52:48.809Z,100734.79
2023-04-27T10:55:18.455Z,100738.45
2023-04-27T10:57:48.077Z,100741.80
2023-04-27T11:00:23.773Z,100738.48
2023-04-27T11:02:56.237Z,100740.34
2023-04-27T11:05:30.610Z,100733.76
2023-04-27T11:08:14.168Z,100732.21
2023-04-27T11:10:47.285Z,100730.66
2023-04-27T11:13:21.521Z,100729.23
2023-04-27T11:15:51.820Z,100731.70
2023-04-27T11:18:22.099Z,100734.96
2023-04-27T11:20:52.552Z,100737.48
2023-04-27T11:23:25.222Z,100743.94
2023-04-27T11:25:54.572Z,100746.94
2023-04-27T11:28:24.402Z,100746.67
2023-04-27T11:30:59.730Z,100753.39
2023-04-27T11:33:28.566Z,100757.50
2023-04-27T11:35:57.559Z,100757.58
2023-04-27T11:38:29.201Z,100751.36
2023-04-27T11:41:05.705Z,100753.79
2023-04-27T11:43:34.699Z,100752.98
2023-04-27T11:46:04.401Z,100752.04
2023-04-27T11:48:32.712Z,100755.17
2023-04-27T11:51:01.537Z,100755.15
2023-04-27T11:53:39.909Z,100754.55
2023-04-27T11:56:13.599Z,100752.07
2023-04-27T11:58:42.595Z,100745.52
2023-04-27T12:01:13.122Z,100740.80
2023-04-27T12:03:41.766Z,100741.75
2023-04-27T12:06:22.079Z,100742.54
2023-04-27T12:08:58.487Z,100743.22
2023-04-27T12:11:27.911Z,100742.92
2023-04-27T12:13:57.040Z,100739.21
2023-04-27T12:16:25.165Z,100742.55
2023-04-27T12:18:56.016Z,100740.05
2023-04-27T12:21:24.152Z,100740.85
2023-04-27T12:23:52.983Z,100744.98
2023-04-27T12:26:21.627Z,100741.68
2023-04-27T12:28:50.082Z,100736.78
2023-04-27T12:31:24.111Z,100741.47
2023-04-27T12:33:54.251Z,100738.02
2023-04-27T12:36:22.368Z,100737.66
2023-04-27T12:38:50.500Z,100732.98
2023-04-27T12:41:18.607Z,100734.52
2023-04-27T12:43:48.594Z,100736.74
2023-04-27T12:46:18.326Z,100727.66
2023-04-27T12:48:46.896Z,100731.95
2023-04-27T12:51:15.083Z,100731.62
2023-04-27T12:53:43.432Z,100737.98
2023-04-27T12:56:11.744Z,100736.30
2023-04-27T12:58:40.176Z,100740.79
2023-04-27T13:01:14.944Z,100742.51
2023-04-27T13:03:44.691Z,100739.13
2023-04-27T13:06:13.485Z,100741.89
2023-04-27T13:08:41.720Z,100740.16
2023-04-27T13:11:10.201Z,100738.27
2023-04-27T13:13:38.405Z,100740.27
2023-04-27T13:16:06.983Z,100742.11
2023-04-27T13:18:35.703Z,100746.38
2023-04-27T13:21:05.485Z,100746.05
2023-04-27T13:23:34.126Z,100748.02
2023-04-27T13:26:02.509Z,100745.83
2023-04-27T13:28:30.686Z,100746.11
2023-04-27T13:31:00.217Z,100749.95
2023-04-27T13:33:28.782Z,100753.65
2023-04-27T13:35:56.959Z,100754.22
2023-04-27T13:38:25.118Z,100753.40
2023-04-27T13:40:54.145Z,100755.59
2023-04-27T13:43:22.448Z,100758.28
2023-04-27T13:45:52.676Z,100762.73
2023-04-27T13:48:21.829Z,100766.67
2023-04-27T13:50:50.340Z,100767.04
2023-04-27T13:53:18.452Z,100770.80
2023-04-27T13:55:46.633Z,100769.92
2023-04-27T13:58:14.759Z,100776.11
2023-04-27T14:00:42.924Z,100772.20
2023-04-27T14:03:12.011Z,100773.33
2023-04-27T14:05:40.421Z,100777.66
2023-04-27T14:08:08.727Z,100785.70
2023-04-27T14:10:38.132Z,100780.45
2023-04-27T14:13:06.819Z,100791.27
2023-04-27T14:15:37.394Z,100789.08
2023-04-27T14:18:08.029Z,100791.73
2023-04-27T14:20:37.360Z,100789.69
2023-04-27T14:23:06.368Z,100790.67
2023-04-27T14:25:35.103Z,100793.21
2023-04-27T14:28:05.768Z,100790.02
2023-04-27T14:30:35.120Z,100787.28
2023-04-27T14:33:03.786Z,100789.11
2023-04-27T14:35:35.078Z,100792.81
2023-04-27T14:38:04.067Z,100792.14
2023-04-27T14:40:32.653Z,100799.02
2023-04-27T14:43:01.084Z,100801.31
2023-04-27T14:45:39.723Z,100803.54
2023-04-27T14:48:12.344Z,100809.77
2023-04-27T14:50:40.564Z,100809.98
2023-04-27T14:53:08.807Z,100814.09
2023-04-27T14:55:37.065Z,100818.08
2023-04-27T14:58:06.697Z,100821.79
2023-04-27T15:00:34.822Z,100824.61
2023-04-27T15:03:03.117Z,100827.80
2023-04-27T15:05:31.934Z,100831.15
2023-04-27T15:08:02.240Z,100836.64
2023-04-27T15:10:30.490Z,100836.55
2023-04-27T15:12:58.590Z,100834.10
2023-04-27T15:15:26.637Z,100836.52
2023-04-27T15:17:54.867Z,100837.70
2023-04-27T15:20:23.037Z,100835.45
2023-04-27T15:22:51.160Z,100836.83
2023-04-27T15:25:19.364Z,100836.67
2023-04-27T15:27:47.551Z,100845.70
2023-04-27T15:30:16.508Z,100839.47
2023-04-27T15:32:44.746Z,100840.43
2023-04-27T15:35:12.894Z,100845.54
2023-04-27T15:37:41.068Z,100852.57
2023-04-27T15:40:10.162Z,100852.39
2023-04-27T15:42:38.278Z,100851.40
2023-04-27T15:45:09.868Z,100854.75
2023-04-27T15:47:38.319Z,100852.23
2023-04-27T15:50:08.131Z,100852.73
2023-04-27T15:52:36.220Z,100858.46
2023-04-27T15:55:04.940Z,100863.11
2023-04-27T15:57:32.994Z,100866.13
2023-04-27T16:00:01.355Z,100865.91
2023-04-27T16:02:30.779Z,100866.02
2023-04-27T16:04:59.016Z,100866.96
2023-04-27T16:07:27.211Z,100868.80
2023-04-27T16:09:55.418Z,100871.27
2023-04-27T16:12:23.573Z,100871.96
2023-04-27T16:14:57.186Z,100876.05
2023-04-27T16:17:27.962Z,100875.52
2023-04-27T16:19:56.107Z,100878.25
2023-04-27T16:22:24.248Z,100877.59
2023-04-27T16:24:52.496Z,100881.48
2023-04-27T16:27:20.967Z,100881.01
2023-04-27T16:29:49.080Z,100887.12
2023-04-27T16:32:19.971Z,100885.64
2023-04-27T16:34:48.589Z,100888.54
2023-04-27T16:37:16.773Z,100890.05
2023-04-27T16:39:45.355Z,100888.88
2023-04-27T16:42:18.780Z,100894.58
2023-04-27T16:44:48.276Z,100894.55
2023-04-27T16:47:16.604Z,100901.02
2023-04-27T16:49:45.007Z,100900.11
2023-04-27T16:52:13.296Z,100908.71
2023-04-27T16:54:41.660Z,100910.77
2023-04-27T16:57:10.576Z,100911.56
2023-04-27T16:59:39.046Z,100917.77
2023-04-27T17:02:23.040Z,100914.83
2023-04-27T17:04:54.660Z,100916.72
2023-04-27T17:07:23.044Z,100919.89
2023-04-27T17:09:51.366Z,100919.41
2023-04-27T17:12:19.724Z,100922.25
2023-04-27T17:14:47.965Z,100924.55
2023-04-27T17:17:16.381Z,100928.16
2023-04-27T17:19:44.510Z,100932.27
2023-04-27T17:22:13.472Z,100937.98
2023-04-27T17:24:41.704Z,100938.55
2023-04-27T17:27:10.739Z,100945.02
2023-04-27T17:29:38.852Z,100948.39
2023-04-27T17:32:07.041Z,100949.11
2023-04-27T17:34:35.859Z,100950.06
2023-04-27T17:37:04.076Z,100952.27
2023-04-27T17:39:32.359Z,100953.44
2023-04-27T17:42:00.484Z,100957.79
2023-04-27T17:44:28.590Z,100955.86
2023-04-27T17:46:58.008Z,100961.23
2023-04-27T17:49:26.180Z,100962.65
2023-04-27T17:51:54.264Z,100973.67
2023-04-27T17:54:22.455Z,100975.39
2023-04-27T17:56:50.663Z,100974.78
2023-04-27T17:59:18.896Z,100976.16
2023-04-27T18:01:47.093Z,100976.21
2023-04-27T18:04:15.249Z,100976.61
2023-04-27T18:06:43.613Z,100975.29
2023-04-27T18:09:12.733Z,100977.88
2023-04-27T18:11:41.689Z,100979.36
2023-04-27T18:14:10.170Z,100976.27
2023-04-27T18:16:38.428Z,100977.38
2023-04-27T18:19:06.931Z,100981.01
2023-04-27T18:21:35.106Z,100982.33
2023-04-27T18:24:03.926Z,100986.29
2023-04-27T18:26:35.442Z,100986.02
2023-04-27T18:29:03.803Z,100990.63
2023-04-27T18:31:32.093Z,100988.24
2023-04-27T18:34:00.207Z,100988.52
2023-04-27T18:36:28.746Z,100989.28
2023-04-27T18:38:58.359Z,100991.44
2023-04-27T18:41:26.628Z,100991.11
2023-04-27T18:44:03.198Z,100991.59
2023-04-27T18:46:32.383Z,100994.73
2023-04-27T18:49:01.721Z,100993.19
2023-04-27T18:51:30.082Z,100991.80
2023-04-27T18:53:58.561Z,100995.16
2023-04-27T18:56:26.836Z,100995.65
2023-04-27T18:58:56.247Z,100999.28
2023-04-27T19:01:26.578Z,100998.23
2023-04-27T19:03:55.434Z,100999.10
2023-04-27T19:06:23.945Z,100998.92
2023-04-27T19:08:52.301Z,100999.80
2023-04-27T19:11:22.557Z,101008.85
2023-04-27T19:13:50.814Z,101006.12
2023-04-27T19:16:19.198Z,101009.92
2023-04-27T19:18:47.665Z,101010.83
2023-04-27T19:21:16.351Z,101012.34
2023-04-27T19:23:45.645Z,101015.71
2023-04-27T19:26:14.349Z,101015.80
2023-04-27T19:28:43.018Z,101017.62
2023-04-27T19:31:11.620Z,101013.73
2023-04-27T19:33:46.821Z,101016.86
2023-04-27T19:36:15.952Z,101019.67
2023-04-27T19:38:44.169Z,101021.16
2023-04-27T19:41:14.347Z,101015.76
2023-04-27T19:43:42.737Z,101017.59
2023-04-27T19:46:11.122Z,101024.45
2023-04-27T19:48:39.407Z,101024.14
2023-04-27T19:51:10.643Z,101019.36
2023-04-27T19:53:39.013Z,101021.95
2023-04-27T19:56:07.565Z,101027.48
2023-04-27T19:58:36.249Z,101027.21
2023-04-27T20:01:04.428Z,101030.20
2023-04-27T20:03:33.046Z,101029.73
2023-04-27T20:06:02.153Z,101030.09
2023-04-27T20:08:30.800Z,101029.64
2023-04-27T20:10:59.168Z,101030.03
2023-04-27T20:13:27.442Z,101031.51
2023-04-27T20:15:55.808Z,101031.56
2023-04-27T20:18:25.224Z,101029.45
2023-04-27T20:20:53.399Z,101024.64
2023-04-27T20:23:21.576Z,101027.28
2023-04-27T20:25:50.051Z,101023.60
2023-04-27T20:28:18.738Z,101025.07
2023-04-27T20:30:46.914Z,101026.13
2023-04-27T20:33:15.155Z,101029.20
2023-04-27T20:35:43.466Z,101026.87
2023-04-27T20:38:12.706Z,101025.92
2023-04-27T20:40:42.285Z,101026.54
2023-04-27T20:43:10.751Z,101029.69
2023-04-27T20:45:38.960Z,101029.50
2023-04-27T20:48:09.474Z,101032.55
2023-04-27T20:50:40.918Z,101034.91
2023-04-27T20:53:09.093Z,101035.27
2023-04-27T20:55:38.458Z,101036.83
2023-04-27T20:58:06.754Z,101037.34
2023-04-27T21:00:34.925Z,101032.27
2023-04-27T21:03:03.248Z,101034.88
2023-04-27T21:05:31.746Z,101032.80
2023-04-27T21:07:59.968Z,101036.13
2023-04-27T21:10:28.236Z,101036.98
2023-04-27T21:12:56.409Z,101038.88
2023-04-27T21:15:24.785Z,101040.38
2023-04-27T21:17:52.982Z,101045.53
2023-04-27T21:20:21.648Z,101049.27
2023-04-27T21:22:49.816Z,101051.66
2023-04-27T21:25:18.907Z,101054.58
2023-04-27T21:27:46.987Z,101056.45
2023-04-27T21:30:15.371Z,101059.75
2023-04-27T21:32:44.120Z,101062.59
2023-04-27T21:35:12.355Z,101065.62
2023-04-27T21:37:40.717Z,101068.88
2023-04-27T21:40:09.487Z,101068.39
2023-04-27T21:42:37.668Z,101072.23
2023-04-27T21:45:06.662Z,101071.35
2023-04-27T21:47:35.052Z,101074.02
2023-04-27T21:50:03.361Z,101074.16
2023-04-27T21:52:31.484Z,101073.77
2023-04-27T21:54:59.763Z,101070.35
2023-04-27T21:57:27.934Z,101070.40
2023-04-27T21:59:56.624Z,101068.90
2023-04-27T22:02:25.192Z,101066.34
2023-04-27T22:04:53.664Z,101066.10
2023-04-27T22:07:21.981Z,101070.00
2023-04-27T22:09:50.132Z,101065.83
2023-04-27T22:12:18.309Z,101067.48
2023-04-27T22:14:47.089Z,101064.95
2023-04-27T22:17:15.580Z,101068.92
2023-04-27T22:19:43.897Z,101067.41
2023-04-27T22:22:12.947Z,101070.44
2023-04-27T22:24:41.132Z,101065.31
2023-04-27T22:27:09.291Z,101069.12
2023-04-27T22:29:37.678Z,101069.05
2023-04-27T22:32:06.829Z,101069.77
2023-04-27T22:34:35.039Z,101074.86
2023-04-27T22:37:03.236Z,101075.30
2023-04-27T22:39:32.574Z,101076.11
2023-04-27T22:42:00.689Z,101076.51
2023-04-27T22:44:29.066Z,101074.38
2023-04-27T22:46:57.296Z,101073.64
2023-04-27T22:49:25.517Z,101073.17
2023-04-27T22:51:54.202Z,101073.65
2023-04-27T22:54:22.220Z,101076.70
2023-04-27T22:56:51.058Z,101074.67
2023-04-27T22:59:23.127Z,101074.20
2023-04-27T23:01:52.056Z,101077.20
2023-04-27T23:04:20.764Z,101080.40
2023-04-27T23:06:49.789Z,101077.06
2023-04-27T23:09:17.975Z,101076.13
2023-04-27T23:11:46.143Z,101076.67
2023-04-27T23:14:15.268Z,101079.55
2023-04-27T23:16:44.908Z,101078.14
2023-04-27T23:19:13.912Z,101079.08
2023-04-27T23:21:42.109Z,101078.49
2023-04-27T23:24:10.389Z,101078.84
2023-04-27T23:26:38.561Z,101080.14
2023-04-27T23:29:06.751Z,101079.48
2023-04-27T23:31:35.167Z,101081.85
2023-04-27T23:34:03.592Z,101082.91
2023-04-27T23:36:31.679Z,101083.62
2023-04-27T23:38:59.836Z,101083.20
2023-04-27T23:41:28.217Z,101082.06
2023-04-27T23:43:56.392Z,101083.60
2023-04-27T23:46:24.546Z,101081.27
2023-04-27T23:48:52.748Z,101083.85
2023-04-27T23:51:21.025Z,101078.94
2023-04-27T23:53:49.107Z,101083.94
2023-04-27T23:56:20.662Z,101081.95
2023-04-27T23:58:49.518Z,101089.69
